Airfield :







YOU CAN JOIN US ON...

 
LOGIN :

Register | Disclaimer

   EN    FR    IT 

 









Legend :    VFR   Marginal VFR   IFR   Intensive IFR   Very Intensive IFR
Visi :
Ceiling :
>= 8 km
>= 3000ft
5 to 8 km
1000 to 3000 ft
1500m to 5 km
500 to 1000 ft
800 to 1500m
200 to 500 ft
< 800m
< 200 ft
Symbols :   Thunderstorms  Fog  Heavy snow  Heavy precipitations  Wind > 20 kt






- Airport Elevation : 160 ft
- IATA code : YYR


CYYR - Goose Bay

CURRENT METAR :
  • 260100Z 20006KT 15SM BKN036 BKN160 M10/M14 A3014 RMK SC7AC1 SLP212

EXPIRED METARs :
  • 260000Z 24007KT 15SM BKN040 BKN170 M08/M14 A3016 RMK SC7AC1 SLP219
  • 252300Z 24007KT 15SM BKN044 M09/M14 A3018 RMK SC7 SLP225

TAF TAF CYYR
Valid from the 26 at 00:00 until the 27 at 00:00 UTC


252330Z 2600/2624 25008KT P6SM BKN040
FM260100 24008KT P6SM FEW030 BKN160
FM260600 24005KT P6SM OVC120
BECMG 2612/2614 VRB03KT
FM261600 VRB03KT P6SM -SN BKN015 OVC050
FM261800 VRB03KT 3SM -SN BKN012 OVC030 RMK NXT FCST BY 260600Z



MET'MAP, your aeronautical weather chart ! - Copyright ORBIFLY December 2007 - Disclaimer

ORBIFLY MET'MAP TEAM :

Programming & Development : Alexandra Zaïnal
Concept & original design : Baudouin d'Aumeries
Assistance for programming : Marc-Olivier Méhu
Technical & hardware support : Manuel Goepfert

Contact : metmap@orbifly.com




SOURCES & CREDITS :

   NOAA